createdAt,value
2023-02-06T09:49:43.031Z,102687.78
2023-02-06T09:52:04.129Z,102687.78
2023-02-06T09:54:23.020Z,102676.59
2023-02-06T09:56:52.438Z,102661.16
2023-02-06T09:59:32.954Z,102653.87
2023-02-06T10:01:40.289Z,102664.50
2023-02-06T10:04:31.160Z,102661.47
2023-02-06T10:06:42.926Z,102668.66
2023-02-06T10:09:05.270Z,102665.75
2023-02-06T10:11:17.519Z,102656.94
2023-02-06T10:13:38.697Z,102648.62
2023-02-06T10:15:46.490Z,102650.87
2023-02-06T10:18:14.807Z,102641.19
2023-02-06T10:20:31.693Z,102633.34
2023-02-06T10:22:39.190Z,102635.62
2023-02-06T10:24:54.101Z,102632.81
2023-02-06T10:27:01.344Z,102639.78
2023-02-06T10:29:05.183Z,102640.25
2023-02-06T10:31:26.517Z,102651.19
2023-02-06T10:34:01.482Z,102643.75
2023-02-06T10:36:37.142Z,102648.16
2023-02-06T10:39:07.840Z,102649.97
2023-02-06T10:42:01.858Z,102642.06
2023-02-06T10:44:29.237Z,102642.06
2023-02-06T10:46:46.234Z,102622.94
2023-02-06T10:49:10.227Z,102626.09
2023-02-06T10:51:21.499Z,102624.53
2023-02-06T10:53:34.014Z,102623.75
2023-02-06T10:55:46.380Z,102623.16
2023-02-06T10:58:01.651Z,102632.97
2023-02-06T11:00:05.145Z,102637.38
2023-02-06T11:02:16.962Z,102633.81
2023-02-06T11:04:29.710Z,102624.94
2023-02-06T11:06:33.210Z,102630.75
2023-02-06T11:08:43.756Z,102631.53
2023-02-06T11:10:46.683Z,102626.75
2023-02-06T11:13:22.933Z,102626.78
2023-02-06T11:15:32.870Z,102618.12
2023-02-06T11:17:36.098Z,102611.66
2023-02-06T11:19:42.499Z,102612.63
2023-02-06T11:21:44.766Z,102615.47
2023-02-06T11:23:48.021Z,102617.88
2023-02-06T11:26:15.516Z,102621.03
2023-02-06T11:28:20.327Z,102624.03
2023-02-06T11:30:32.418Z,102618.78
2023-02-06T11:32:52.785Z,102617.84
2023-02-06T11:35:20.520Z,102625.31
2023-02-06T11:37:36.066Z,102637.03
2023-02-06T11:39:39.513Z,102658.09
2023-02-06T11:42:00.506Z,102666.16
2023-02-06T11:44:06.686Z,102660.94
2023-02-06T11:46:23.478Z,102663.69
2023-02-06T11:48:31.595Z,102665.88
2023-02-06T11:50:37.307Z,102669.97
2023-02-06T11:52:42.531Z,102662.44
2023-02-06T11:54:54.918Z,102660.47
2023-02-06T11:57:03.393Z,102655.50
2023-02-06T11:59:22.996Z,102648.44
2023-02-06T12:01:25.316Z,102626.28
2023-02-06T12:03:33.361Z,102626.41
2023-02-06T12:05:42.783Z,102616.06
2023-02-06T12:08:27.073Z,102622.59
2023-02-06T12:10:34.649Z,102633.00
2023-02-06T12:12:42.812Z,102638.94
2023-02-06T12:14:54.356Z,102637.97
2023-02-06T12:17:00.706Z,102644.38
2023-02-06T12:19:10.771Z,102641.78
2023-02-06T12:21:37.739Z,102640.00
2023-02-06T12:23:49.197Z,102629.03
2023-02-06T12:25:57.351Z,102613.88
2023-02-06T12:28:16.369Z,102600.09
2023-02-06T12:30:34.405Z,102582.19
2023-02-06T12:32:45.546Z,102586.03
2023-02-06T12:34:56.008Z,102577.12
2023-02-06T12:37:15.900Z,102583.44
2023-02-06T12:39:21.962Z,102570.47
2023-02-06T12:41:54.944Z,102565.03
2023-02-06T12:44:03.672Z,102562.22
2023-02-06T12:46:22.735Z,102566.88
2023-02-06T12:48:43.026Z,102565.97
2023-02-06T12:51:11.512Z,102554.69
2023-02-06T12:53:31.161Z,102565.41
2023-02-06T12:55:39.046Z,102558.56
2023-02-06T12:57:42.455Z,102564.09
2023-02-06T12:59:59.718Z,102565.22
2023-02-06T13:02:35.608Z,102575.72
2023-02-06T13:04:38.400Z,102557.31
2023-02-06T13:06:56.983Z,102546.28
2023-02-06T13:09:16.128Z,102549.59
2023-02-06T13:11:21.612Z,102550.56
2023-02-06T13:13:36.653Z,102571.47
2023-02-06T13:15:41.352Z,102563.31
2023-02-06T13:17:44.937Z,102552.47
2023-02-06T13:19:47.199Z,102550.88
2023-02-06T13:22:08.001Z,102546.75
2023-02-06T13:24:18.033Z,102543.78
2023-02-06T13:26:51.684Z,102550.16
2023-02-06T13:28:57.941Z,102558.41
2023-02-06T13:31:04.432Z,102552.44
2023-02-06T13:33:15.959Z,102552.00
2023-02-06T13:35:22.773Z,102544.69
2023-02-06T13:37:48.282Z,102526.47
2023-02-06T13:40:23.140Z,102522.78
2023-02-06T13:42:46.439Z,102505.41
2023-02-06T13:44:49.629Z,102498.84
2023-02-06T13:47:15.850Z,102500.78
2023-02-06T13:50:20.426Z,102482.72
2023-02-06T13:52:39.654Z,102490.19
2023-02-06T13:55:14.402Z,102488.03
2023-02-06T13:57:45.762Z,102488.28
2023-02-06T14:00:03.982Z,102482.19
2023-02-06T14:02:17.089Z,102485.09
2023-02-06T14:04:25.532Z,102494.72
2023-02-06T14:06:30.761Z,102494.66
2023-02-06T14:08:51.861Z,102487.63
2023-02-06T14:11:19.389Z,102491.34
2023-02-06T14:13:50.851Z,102482.28
2023-02-06T14:16:33.854Z,102494.94
2023-02-06T14:18:53.256Z,102498.16
2023-02-06T14:21:20.079Z,102497.97
2023-02-06T14:23:34.208Z,102496.00
2023-02-06T14:26:15.630Z,102500.22
2023-02-06T14:28:47.016Z,102499.28
2023-02-06T14:30:58.833Z,102499.38
2023-02-06T14:33:27.090Z,102492.34
2023-02-06T14:35:55.888Z,102497.09
2023-02-06T14:38:35.362Z,102490.50
2023-02-06T14:40:42.695Z,102495.38
2023-02-06T14:42:46.234Z,102495.66
2023-02-06T14:44:57.116Z,102492.03
2023-02-06T14:46:59.657Z,102501.84
2023-02-06T14:49:04.029Z,102504.56
2023-02-06T14:51:08.858Z,102501.37
2023-02-06T14:53:25.437Z,102493.75
2023-02-06T14:55:37.499Z,102497.81
2023-02-06T14:57:45.041Z,102490.06
2023-02-06T14:59:53.643Z,102489.59
2023-02-06T15:01:58.088Z,102494.41
2023-02-06T15:04:30.233Z,102500.03
2023-02-06T15:06:35.511Z,102499.06
2023-02-06T15:08:38.036Z,102499.12
2023-02-06T15:10:40.625Z,102505.00
2023-02-06T15:12:51.855Z,102508.28
2023-02-06T15:15:14.202Z,102509.09
2023-02-06T15:17:22.439Z,102511.59
2023-02-06T15:19:28.023Z,102511.28
2023-02-06T15:21:30.355Z,102510.94
2023-02-06T15:24:02.938Z,102505.84
2023-02-06T15:26:32.109Z,102516.88
2023-02-06T15:28:36.807Z,102513.28
2023-02-06T15:30:39.509Z,102507.78
2023-02-06T15:32:42.109Z,102501.34
2023-02-06T15:34:46.450Z,102500.16
2023-02-06T15:36:49.157Z,102500.91
2023-02-06T15:38:52.116Z,102498.91
2023-02-06T15:41:07.249Z,102506.78
2023-02-06T15:43:15.426Z,102500.63
2023-02-06T15:45:28.924Z,102511.34
2023-02-06T15:47:32.538Z,102503.47
2023-02-06T15:49:43.696Z,102498.81
2023-02-06T15:51:55.058Z,102500.72
2023-02-06T15:54:24.654Z,102505.59
2023-02-06T15:56:31.816Z,102503.84
2023-02-06T15:58:36.545Z,102501.28
2023-02-06T16:00:39.730Z,102508.91
2023-02-06T16:02:42.783Z,102514.91
2023-02-06T16:04:45.172Z,102514.34
2023-02-06T16:07:00.845Z,102518.47
2023-02-06T16:09:07.369Z,102519.19
2023-02-06T16:11:30.945Z,102523.59
2023-02-06T16:13:33.489Z,102521.25
2023-02-06T16:15:38.698Z,102524.56
2023-02-06T16:17:42.828Z,102523.94
2023-02-06T16:19:54.735Z,102536.88
2023-02-06T16:22:29.570Z,102534.09
2023-02-06T16:24:31.958Z,102526.16
2023-02-06T16:26:46.995Z,102533.16
2023-02-06T16:28:57.842Z,102530.16
2023-02-06T16:31:04.572Z,102533.19
2023-02-06T16:33:29.450Z,102533.41
2023-02-06T16:35:33.257Z,102529.94
2023-02-06T16:37:35.674Z,102532.69
2023-02-06T16:39:43.034Z,102533.72
2023-02-06T16:41:50.995Z,102531.34
2023-02-06T16:43:55.154Z,102542.72
2023-02-06T16:46:00.577Z,102536.59
2023-02-06T16:48:03.642Z,102541.41
2023-02-06T16:50:06.084Z,102541.59
2023-02-06T16:52:09.263Z,102540.91
2023-02-06T16:54:24.753Z,102546.13
2023-02-06T16:56:27.189Z,102550.22
2023-02-06T16:58:31.880Z,102547.06
2023-02-06T17:00:34.974Z,102543.50
2023-02-06T17:02:37.959Z,102542.59
2023-02-06T17:04:41.455Z,102546.84
2023-02-06T17:06:44.441Z,102547.97
2023-02-06T17:08:48.084Z,102540.53
2023-02-06T17:10:50.953Z,102535.34
2023-02-06T17:12:54.264Z,102545.06
2023-02-06T17:14:56.795Z,102543.31
2023-02-06T17:16:59.321Z,102544.03
2023-02-06T17:19:02.297Z,102541.81
2023-02-06T17:21:05.362Z,102536.78
2023-02-06T17:23:10.980Z,102545.06
2023-02-06T17:25:13.991Z,102537.19
2023-02-06T17:27:21.897Z,102531.50
2023-02-06T17:29:27.528Z,102538.31
2023-02-06T17:31:31.142Z,102538.78
2023-02-06T17:33:34.639Z,102536.62
2023-02-06T17:35:38.072Z,102538.37
2023-02-06T17:37:41.420Z,102533.41
2023-02-06T17:39:44.066Z,102537.06
2023-02-06T17:41:47.933Z,102534.28
2023-02-06T17:43:51.155Z,102538.84
2023-02-06T17:45:54.633Z,102540.69
2023-02-06T17:47:58.065Z,102542.75
2023-02-06T17:50:01.260Z,102543.75
2023-02-06T17:52:04.295Z,102547.59
2023-02-06T17:54:07.148Z,102540.09
2023-02-06T17:56:13.122Z,102543.28
2023-02-06T17:58:15.648Z,102535.56
2023-02-06T18:00:20.374Z,102536.62
2023-02-06T18:02:23.213Z,102540.19
2023-02-06T18:04:25.852Z,102540.22
2023-02-06T18:06:32.684Z,102550.22
2023-02-06T18:08:35.712Z,102554.19
2023-02-06T18:10:39.601Z,102553.88
2023-02-06T18:12:43.533Z,102553.00
2023-02-06T18:14:49.463Z,102549.41
2023-02-06T18:16:52.396Z,102550.69
2023-02-06T18:18:55.601Z,102547.97
2023-02-06T18:20:59.503Z,102557.94
2023-02-06T18:23:03.123Z,102545.81
2023-02-06T18:25:06.863Z,102550.28
2023-02-06T18:27:11.877Z,102551.75
2023-02-06T18:29:14.792Z,102549.75
2023-02-06T18:31:30.827Z,102557.12
2023-02-06T18:33:38.017Z,102553.88
2023-02-06T18:35:44.468Z,102556.50
2023-02-06T18:37:48.360Z,102548.41
2023-02-06T18:39:51.569Z,102554.69
2023-02-06T18:42:13.541Z,102547.19
2023-02-06T18:44:16.990Z,102551.78
2023-02-06T18:46:20.801Z,102552.06
2023-02-06T18:48:24.754Z,102551.63
2023-02-06T18:50:28.306Z,102547.25
2023-02-06T18:52:32.574Z,102544.47
2023-02-06T18:54:36.830Z,102546.88
2023-02-06T18:56:40.315Z,102548.66
2023-02-06T18:58:43.966Z,102546.25
2023-02-06T19:00:47.694Z,102549.81
2023-02-06T19:02:50.968Z,102554.94
2023-02-06T19:04:58.588Z,102553.19
2023-02-06T19:07:02.167Z,102562.44
2023-02-06T19:09:07.636Z,102567.06
2023-02-06T19:11:11.752Z,102561.47
2023-02-06T19:13:17.033Z,102558.91
2023-02-06T19:15:22.094Z,102561.19
2023-02-06T19:17:26.802Z,102551.63
2023-02-06T19:19:31.727Z,102554.12
2023-02-06T19:21:35.227Z,102558.63
2023-02-06T19:23:40.008Z,102550.88
2023-02-06T19:25:44.861Z,102553.19
2023-02-06T19:27:50.459Z,102552.72
2023-02-06T19:29:58.666Z,102546.16
2023-02-06T19:32:02.283Z,102554.34
2023-02-06T19:34:05.737Z,102547.50
2023-02-06T19:36:15.038Z,102557.91
2023-02-06T19:38:17.855Z,102558.59
2023-02-06T19:40:21.641Z,102569.56
2023-02-06T19:42:25.253Z,102560.22
2023-02-06T19:44:32.453Z,102560.22
2023-02-06T19:46:40.158Z,102562.56
2023-02-06T19:48:46.152Z,102561.94
2023-02-06T19:50:49.873Z,102561.84
2023-02-06T19:52:53.670Z,102564.72
2023-02-06T19:54:57.845Z,102576.25
2023-02-06T19:57:02.506Z,102583.22
2023-02-06T19:59:18.586Z,102581.84
2023-02-06T20:01:23.529Z,102577.72
2023-02-06T20:03:28.867Z,102581.09
2023-02-06T20:05:35.485Z,102587.94
2023-02-06T20:07:38.969Z,102583.91
2023-02-06T20:09:46.530Z,102579.59
2023-02-06T20:11:50.462Z,102592.69
2023-02-06T20:13:55.691Z,102589.59
2023-02-06T20:16:03.900Z,102587.34
2023-02-06T20:18:08.607Z,102594.09
2023-02-06T20:20:12.907Z,102604.31
2023-02-06T20:22:16.976Z,102602.06
2023-02-06T20:24:26.599Z,102608.41
2023-02-06T20:26:35.903Z,102619.66
2023-02-06T20:28:40.862Z,102622.03
2023-02-06T20:30:45.609Z,102616.78
2023-02-06T20:32:50.327Z,102619.53
2023-02-06T20:34:58.316Z,102628.16
2023-02-06T20:37:03.449Z,102629.81
2023-02-06T20:39:06.555Z,102628.84
2023-02-06T20:41:11.080Z,102624.34
2023-02-06T20:43:14.456Z,102628.25
2023-02-06T20:45:17.417Z,102626.00
2023-02-06T20:47:20.324Z,102631.88
2023-02-06T20:49:27.390Z,102634.31
2023-02-06T20:51:31.097Z,102635.94
2023-02-06T20:53:34.302Z,102628.25
2023-02-06T20:55:46.218Z,102620.59
2023-02-06T20:57:49.367Z,102620.28
2023-02-06T20:59:53.320Z,102617.25
2023-02-06T21:01:56.665Z,102619.44
2023-02-06T21:04:04.523Z,102626.63
2023-02-06T21:06:08.303Z,102628.31
2023-02-06T21:08:11.638Z,102640.63
2023-02-06T21:10:15.199Z,102640.28
2023-02-06T21:12:18.506Z,102643.19
2023-02-06T21:14:21.620Z,102652.59
2023-02-06T21:16:25.235Z,102654.53
2023-02-06T21:18:30.955Z,102646.63
2023-02-06T21:20:33.641Z,102658.34
2023-02-06T21:22:36.268Z,102656.78
2023-02-06T21:24:39.126Z,102651.56
2023-02-06T21:26:41.669Z,102646.16
2023-02-06T21:28:46.566Z,102646.69
2023-02-06T21:30:50.332Z,102645.12
2023-02-06T21:32:55.201Z,102643.69
2023-02-06T21:34:57.603Z,102641.34
2023-02-06T21:37:00.203Z,102640.84
2023-02-06T21:39:03.692Z,102635.62
2023-02-06T21:41:08.012Z,102636.22
2023-02-06T21:43:11.140Z,102637.94
2023-02-06T21:45:13.766Z,102644.72
2023-02-06T21:47:16.092Z,102651.16
2023-02-06T21:49:19.709Z,102640.56
2023-02-06T21:51:23.180Z,102640.97
2023-02-06T21:53:25.590Z,102648.66
2023-02-06T21:55:31.536Z,102652.75
2023-02-06T21:57:33.963Z,102657.69
2023-02-06T21:59:37.971Z,102656.31
2023-02-06T22:01:41.279Z,102657.28
2023-02-06T22:03:45.350Z,102660.59
2023-02-06T22:05:47.696Z,102655.31
2023-02-06T22:07:50.121Z,102650.81
2023-02-06T22:09:52.724Z,102643.06
2023-02-06T22:11:55.815Z,102655.38
2023-02-06T22:14:01.097Z,102652.69
2023-02-06T22:16:03.960Z,102663.34
2023-02-06T22:18:06.380Z,102655.47
2023-02-06T22:20:08.917Z,102657.34
2023-02-06T22:22:12.619Z,102666.06
2023-02-06T22:24:15.110Z,102672.38
2023-02-06T22:26:19.499Z,102669.94
2023-02-06T22:28:22.198Z,102661.59
2023-02-06T22:30:24.714Z,102663.47
2023-02-06T22:32:27.200Z,102664.06
2023-02-06T22:34:31.590Z,102675.09
2023-02-06T22:36:33.980Z,102677.78
2023-02-06T22:38:37.304Z,102686.16
2023-02-06T22:40:40.010Z,102678.13
2023-02-06T22:42:42.309Z,102678.06
2023-02-06T22:44:44.651Z,102683.97
2023-02-06T22:46:51.596Z,102678.63
2023-02-06T22:48:54.226Z,102686.78
2023-02-06T22:50:56.980Z,102694.47
2023-02-06T22:53:17.846Z,102695.72
2023-02-06T22:55:20.335Z,102696.00
2023-02-06T22:57:23.808Z,102697.84
2023-02-06T22:59:26.497Z,102698.25
2023-02-06T23:01:39.031Z,102700.41
2023-02-06T23:03:41.464Z,102692.72
2023-02-06T23:05:44.066Z,102679.41
2023-02-06T23:07:46.362Z,102670.44
2023-02-06T23:09:48.673Z,102663.44
2023-02-06T23:11:52.111Z,102660.78
2023-02-06T23:13:57.162Z,102650.00
2023-02-06T23:16:00.163Z,102646.84
2023-02-06T23:18:02.792Z,102638.97
2023-02-06T23:20:06.918Z,102630.16
2023-02-06T23:22:10.676Z,102637.31
2023-02-06T23:24:14.451Z,102638.91
2023-02-06T23:26:18.671Z,102635.53
2023-02-06T23:28:22.304Z,102635.09
2023-02-06T23:30:25.694Z,102643.16
2023-02-06T23:32:28.044Z,102639.66
2023-02-06T23:34:30.384Z,102632.53
2023-02-06T23:36:33.069Z,102634.47
2023-02-06T23:38:35.731Z,102636.69
2023-02-06T23:40:38.721Z,102641.59
2023-02-06T23:42:41.327Z,102637.63
2023-02-06T23:44:43.600Z,102642.56
2023-02-06T23:46:46.189Z,102629.97
2023-02-06T23:48:49.749Z,102629.31
2023-02-06T23:50:52.287Z,102629.31
2023-02-06T23:52:54.850Z,102615.44
2023-02-06T23:54:57.465Z,102611.62
